sensor_id;sensor_type;location;lat;lon;timestamp;pressure;altitude;pressure_sealevel;temperature;humidity
63916;BME280;50094;51.356;-0.196;2023-02-24T00:01:25;101116.48;;;23.13;24.19
63916;BME280;50094;51.356;-0.196;2023-02-24T00:03:54;101118.72;;;23.34;24.17
63916;BME280;50094;51.356;-0.196;2023-02-24T00:06:22;101112.18;;;23.05;24.18
63916;BME280;50094;51.356;-0.196;2023-02-24T00:08:50;101108.08;;;23.22;24.18
63916;BME280;50094;51.356;-0.196;2023-02-24T00:11:18;101110.35;;;23.02;24.17
63916;BME280;50094;51.356;-0.196;2023-02-24T00:13:45;101107.69;;;23.20;24.17
63916;BME280;50094;51.356;-0.196;2023-02-24T00:16:14;101108.28;;;23.19;24.15
63916;BME280;50094;51.356;-0.196;2023-02-24T00:18:42;101108.08;;;22.94;24.14
63916;BME280;50094;51.356;-0.196;2023-02-24T00:21:11;101106.45;;;23.12;24.15
63916;BME280;50094;51.356;-0.196;2023-02-24T00:23:40;101102.19;;;22.87;24.15
63916;BME280;50094;51.356;-0.196;2023-02-24T00:26:09;101097.02;;;23.06;24.15
63916;BME280;50094;51.356;-0.196;2023-02-24T00:28:37;101092.20;;;23.05;24.13
63916;BME280;50094;51.356;-0.196;2023-02-24T00:31:07;101092.28;;;23.04;24.12
63916;BME280;50094;51.356;-0.196;2023-02-24T00:33:35;101088.37;;;22.78;24.11
63916;BME280;50094;51.356;-0.196;2023-02-24T00:36:05;101085.35;;;22.96;24.10
63916;BME280;50094;51.356;-0.196;2023-02-24T00:38:32;101084.86;;;22.92;24.09
63916;BME280;50094;51.356;-0.196;2023-02-24T00:41:00;101088.63;;;22.92;24.08
63916;BME280;50094;51.356;-0.196;2023-02-24T00:43:28;101085.34;;;22.91;24.07
63916;BME280;50094;51.356;-0.196;2023-02-24T00:45:54;101081.42;;;22.89;24.09
63916;BME280;50094;51.356;-0.196;2023-02-24T00:48:21;101078.66;;;22.85;24.09
63916;BME280;50094;51.356;-0.196;2023-02-24T00:50:48;101070.81;;;22.86;24.08
63916;BME280;50094;51.356;-0.196;2023-02-24T00:53:15;101055.39;;;22.86;24.08
63916;BME280;50094;51.356;-0.196;2023-02-24T00:55:42;101049.30;;;22.85;24.07
63916;BME280;50094;51.356;-0.196;2023-02-24T00:58:09;101043.59;;;22.66;24.05
63916;BME280;50094;51.356;-0.196;2023-02-24T01:00:37;101039.04;;;22.91;24.02
63916;BME280;50094;51.356;-0.196;2023-02-24T01:03:04;101030.86;;;22.87;24.02
63916;BME280;50094;51.356;-0.196;2023-02-24T01:05:34;101025.25;;;22.81;24.02
63916;BME280;50094;51.356;-0.196;2023-02-24T01:08:01;101020.99;;;22.76;24.01
63916;BME280;50094;51.356;-0.196;2023-02-24T01:10:28;101020.81;;;22.74;24.01
63916;BME280;50094;51.356;-0.196;2023-02-24T01:12:55;101018.35;;;22.54;24.00
63916;BME280;50094;51.356;-0.196;2023-02-24T01:15:22;101012.45;;;22.75;23.99
63916;BME280;50094;51.356;-0.196;2023-02-24T01:17:49;101007.95;;;22.72;23.99
63916;BME280;50094;51.356;-0.196;2023-02-24T01:20:17;100998.36;;;22.71;23.99
63916;BME280;50094;51.356;-0.196;2023-02-24T01:22:46;100990.14;;;22.70;23.98
63916;BME280;50094;51.356;-0.196;2023-02-24T01:25:15;100986.04;;;22.68;23.98
63916;BME280;50094;51.356;-0.196;2023-02-24T01:27:42;100980.96;;;22.68;23.97
63916;BME280;50094;51.356;-0.196;2023-02-24T01:30:11;100979.35;;;22.68;23.96
63916;BME280;50094;51.356;-0.196;2023-02-24T01:32:39;100978.50;;;22.69;23.94
63916;BME280;50094;51.356;-0.196;2023-02-24T01:35:06;100976.68;;;22.47;23.93
63916;BME280;50094;51.356;-0.196;2023-02-24T01:37:33;100987.98;;;22.68;23.90
63916;BME280;50094;51.356;-0.196;2023-02-24T01:40:01;100988.38;;;22.65;23.95
63916;BME280;50094;51.356;-0.196;2023-02-24T01:42:28;100995.35;;;22.66;23.97
63916;BME280;50094;51.356;-0.196;2023-02-24T01:45:15;100986.02;;;22.64;23.96
63916;BME280;50094;51.356;-0.196;2023-02-24T01:47:43;100993.47;;;22.43;23.95
63916;BME280;50094;51.356;-0.196;2023-02-24T01:50:10;100991.19;;;22.64;23.96
63916;BME280;50094;51.356;-0.196;2023-02-24T01:52:37;100987.63;;;22.62;23.96
63916;BME280;50094;51.356;-0.196;2023-02-24T01:55:09;100981.11;;;22.57;23.96
63916;BME280;50094;51.356;-0.196;2023-02-24T01:57:38;100976.59;;;22.58;23.96
63916;BME280;50094;51.356;-0.196;2023-02-24T02:00:09;100975.46;;;22.65;23.93
63916;BME280;50094;51.356;-0.196;2023-02-24T02:02:37;100978.16;;;22.63;23.92
63916;BME280;50094;51.356;-0.196;2023-02-24T02:05:07;100977.34;;;22.59;23.89
63916;BME280;50094;51.356;-0.196;2023-02-24T02:07:37;100974.73;;;22.57;23.88
63916;BME280;50094;51.356;-0.196;2023-02-24T02:10:07;100977.48;;;22.57;23.87
63916;BME280;50094;51.356;-0.196;2023-02-24T02:12:36;100979.24;;;22.56;23.86
63916;BME280;50094;51.356;-0.196;2023-02-24T02:15:05;100977.33;;;22.53;23.85
63916;BME280;50094;51.356;-0.196;2023-02-24T02:17:39;100971.70;;;22.61;23.81
63916;BME280;50094;51.356;-0.196;2023-02-24T02:20:29;100968.30;;;22.56;23.80
63916;BME280;50094;51.356;-0.196;2023-02-24T02:23:34;100962.79;;;22.50;23.80
63916;BME280;50094;51.356;-0.196;2023-02-24T02:26:33;100955.97;;;22.48;23.78
63916;BME280;50094;51.356;-0.196;2023-02-24T02:29:23;100948.17;;;22.46;23.78
63916;BME280;50094;51.356;-0.196;2023-02-24T02:32:45;100944.81;;;22.46;23.77
63916;BME280;50094;51.356;-0.196;2023-02-24T02:35:18;100943.27;;;22.43;23.76
63916;BME280;50094;51.356;-0.196;2023-02-24T02:37:59;100943.02;;;22.41;23.77
63916;BME280;50094;51.356;-0.196;2023-02-24T02:40:33;100940.79;;;22.69;23.75
63916;BME280;50094;51.356;-0.196;2023-02-24T02:43:10;100934.80;;;22.39;23.74
63916;BME280;50094;51.356;-0.196;2023-02-24T02:45:44;100929.90;;;22.34;23.74
63916;BME280;50094;51.356;-0.196;2023-02-24T02:48:17;100928.92;;;22.35;23.74
63916;BME280;50094;51.356;-0.196;2023-02-24T02:50:48;100927.15;;;22.34;23.74
63916;BME280;50094;51.356;-0.196;2023-02-24T02:53:23;100922.09;;;22.34;23.73
63916;BME280;50094;51.356;-0.196;2023-02-24T02:55:55;100918.29;;;22.82;23.72
63916;BME280;50094;51.356;-0.196;2023-02-24T02:58:27;100913.51;;;22.32;23.71
63916;BME280;50094;51.356;-0.196;2023-02-24T03:00:58;100909.30;;;22.77;23.72
63916;BME280;50094;51.356;-0.196;2023-02-24T03:03:27;100903.96;;;22.30;23.70
63916;BME280;50094;51.356;-0.196;2023-02-24T03:05:58;100902.50;;;22.31;23.68
63916;BME280;50094;51.356;-0.196;2023-02-24T03:08:30;100895.83;;;22.29;23.69
63916;BME280;50094;51.356;-0.196;2023-02-24T03:11:00;100893.21;;;22.28;23.69
63916;BME280;50094;51.356;-0.196;2023-02-24T03:13:32;100892.92;;;22.27;23.69
63916;BME280;50094;51.356;-0.196;2023-02-24T03:16:01;100890.34;;;22.24;23.71
63916;BME280;50094;51.356;-0.196;2023-02-24T03:18:31;100889.00;;;22.24;23.71
63916;BME280;50094;51.356;-0.196;2023-02-24T03:21:04;100888.59;;;22.51;23.69
63916;BME280;50094;51.356;-0.196;2023-02-24T03:23:36;100883.27;;;22.22;23.69
63916;BME280;50094;51.356;-0.196;2023-02-24T03:26:10;100880.96;;;22.21;23.69
63916;BME280;50094;51.356;-0.196;2023-02-24T03:28:46;100871.56;;;22.29;23.65
63916;BME280;50094;51.356;-0.196;2023-02-24T03:31:19;100864.01;;;22.27;23.64
63916;BME280;50094;51.356;-0.196;2023-02-24T03:33:52;100860.67;;;22.25;23.62
63916;BME280;50094;51.356;-0.196;2023-02-24T03:36:21;100853.88;;;22.70;23.62
63916;BME280;50094;51.356;-0.196;2023-02-24T03:38:48;100851.83;;;22.49;23.61
63916;BME280;50094;51.356;-0.196;2023-02-24T03:41:15;100847.66;;;22.21;23.60
63916;BME280;50094;51.356;-0.196;2023-02-24T03:43:45;100845.96;;;22.19;23.60
63916;BME280;50094;51.356;-0.196;2023-02-24T03:46:14;100841.88;;;22.17;23.58
63916;BME280;50094;51.356;-0.196;2023-02-24T03:48:45;100836.23;;;22.64;23.58
63916;BME280;50094;51.356;-0.196;2023-02-24T03:51:15;100830.46;;;22.13;23.58
63916;BME280;50094;51.356;-0.196;2023-02-24T03:53:56;100826.16;;;22.13;23.56
63916;BME280;50094;51.356;-0.196;2023-02-24T03:56:30;100819.46;;;22.11;23.57
63916;BME280;50094;51.356;-0.196;2023-02-24T03:59:11;100817.78;;;22.07;23.57
63916;BME280;50094;51.356;-0.196;2023-02-24T04:01:45;100814.82;;;22.39;23.54
63916;BME280;50094;51.356;-0.196;2023-02-24T04:04:18;100811.51;;;22.38;23.54
63916;BME280;50094;51.356;-0.196;2023-02-24T04:06:51;100810.98;;;22.09;23.53
63916;BME280;50094;51.356;-0.196;2023-02-24T04:09:26;100811.36;;;22.09;23.52
63916;BME280;50094;51.356;-0.196;2023-02-24T04:12:03;100805.05;;;22.36;23.51
63916;BME280;50094;51.356;-0.196;2023-02-24T04:14:35;100802.74;;;22.07;23.52
63916;BME280;50094;51.356;-0.196;2023-02-24T04:17:08;100799.28;;;22.06;23.52
63916;BME280;50094;51.356;-0.196;2023-02-24T04:19:39;100795.40;;;22.11;23.49
63916;BME280;50094;51.356;-0.196;2023-02-24T04:22:11;100793.48;;;22.38;23.47
63916;BME280;50094;51.356;-0.196;2023-02-24T04:24:41;100796.20;;;22.57;23.47
63916;BME280;50094;51.356;-0.196;2023-02-24T04:27:10;100795.64;;;22.08;23.45
63916;BME280;50094;51.356;-0.196;2023-02-24T04:29:42;100786.37;;;22.30;23.45
63916;BME280;50094;51.356;-0.196;2023-02-24T04:32:13;100780.85;;;22.31;23.44
63916;BME280;50094;51.356;-0.196;2023-02-24T04:34:42;100776.56;;;22.28;23.44
63916;BME280;50094;51.356;-0.196;2023-02-24T04:37:09;100773.67;;;22.25;23.44
63916;BME280;50094;51.356;-0.196;2023-02-24T04:39:36;100765.88;;;21.96;23.45
63916;BME280;50094;51.356;-0.196;2023-02-24T04:42:03;100766.31;;;22.26;23.44
63916;BME280;50094;51.356;-0.196;2023-02-24T04:44:31;100762.63;;;22.00;23.44
63916;BME280;50094;51.356;-0.196;2023-02-24T04:46:58;100760.32;;;22.29;23.43
63916;BME280;50094;51.356;-0.196;2023-02-24T04:49:25;100762.48;;;22.27;23.44
63916;BME280;50094;51.356;-0.196;2023-02-24T04:51:53;100766.75;;;22.27;23.44
63916;BME280;50094;51.356;-0.196;2023-02-24T04:54:20;100765.01;;;22.00;23.44
63916;BME280;50094;51.356;-0.196;2023-02-24T04:56:49;100761.63;;;22.26;23.44
63916;BME280;50094;51.356;-0.196;2023-02-24T04:59:18;100766.58;;;22.23;23.44
63916;BME280;50094;51.356;-0.196;2023-02-24T05:01:47;100763.81;;;22.39;23.47
63916;BME280;50094;51.356;-0.196;2023-02-24T05:04:14;100762.73;;;22.15;23.49
63916;BME280;50094;51.356;-0.196;2023-02-24T05:06:42;100760.09;;;21.91;23.50
63916;BME280;50094;51.356;-0.196;2023-02-24T05:09:10;100758.46;;;21.89;23.52
63916;BME280;50094;51.356;-0.196;2023-02-24T05:11:37;100754.62;;;21.95;23.52
63916;BME280;50094;51.356;-0.196;2023-02-24T05:14:04;100745.70;;;21.92;23.53
63916;BME280;50094;51.356;-0.196;2023-02-24T05:16:31;100741.24;;;22.18;23.55
63916;BME280;50094;51.356;-0.196;2023-02-24T05:18:58;100733.74;;;21.92;23.54
63916;BME280;50094;51.356;-0.196;2023-02-24T05:21:25;100732.70;;;22.19;23.57
63916;BME280;50094;51.356;-0.196;2023-02-24T05:23:53;100728.58;;;21.86;23.59
63916;BME280;50094;51.356;-0.196;2023-02-24T05:26:22;100725.29;;;21.86;23.59
63916;BME280;50094;51.356;-0.196;2023-02-24T05:28:49;100726.37;;;22.17;23.58
63916;BME280;50094;51.356;-0.196;2023-02-24T05:31:17;100722.39;;;22.39;23.60
63916;BME280;50094;51.356;-0.196;2023-02-24T05:33:47;100717.75;;;22.19;23.58
63916;BME280;50094;51.356;-0.196;2023-02-24T05:36:17;100711.52;;;22.19;23.66
63916;BME280;50094;51.356;-0.196;2023-02-24T05:38:46;100707.23;;;21.97;23.67
63916;BME280;50094;51.356;-0.196;2023-02-24T05:41:16;100702.35;;;22.04;23.71
63916;BME280;50094;51.356;-0.196;2023-02-24T05:43:44;100702.41;;;22.37;23.76
63916;BME280;50094;51.356;-0.196;2023-02-24T05:46:12;100695.85;;;22.19;23.79
63916;BME280;50094;51.356;-0.196;2023-02-24T05:48:40;100695.19;;;22.27;23.82
63916;BME280;50094;51.356;-0.196;2023-02-24T05:51:07;100696.58;;;22.41;23.84
63916;BME280;50094;51.356;-0.196;2023-02-24T05:53:34;100695.92;;;22.50;23.85
63916;BME280;50094;51.356;-0.196;2023-02-24T05:56:01;100687.69;;;22.55;23.86
63916;BME280;50094;51.356;-0.196;2023-02-24T05:58:28;100680.70;;;22.59;23.88
63916;BME280;50094;51.356;-0.196;2023-02-24T06:00:55;100677.30;;;22.66;23.89
63916;BME280;50094;51.356;-0.196;2023-02-24T06:03:23;100666.18;;;22.55;23.89
63916;BME280;50094;51.356;-0.196;2023-02-24T06:05:52;100662.04;;;22.82;23.90
63916;BME280;50094;51.356;-0.196;2023-02-24T06:08:20;100653.80;;;22.90;23.92
63916;BME280;50094;51.356;-0.196;2023-02-24T06:10:47;100647.84;;;22.92;23.93
63916;BME280;50094;51.356;-0.196;2023-02-24T06:13:14;100640.82;;;22.73;23.92
63916;BME280;50094;51.356;-0.196;2023-02-24T06:15:41;100632.77;;;23.01;23.88
63916;BME280;50094;51.356;-0.196;2023-02-24T06:18:08;100629.80;;;22.80;23.85
63916;BME280;50094;51.356;-0.196;2023-02-24T06:20:34;100625.71;;;23.09;23.79
63916;BME280;50094;51.356;-0.196;2023-02-24T06:23:02;100624.03;;;22.88;23.74
63916;BME280;50094;51.356;-0.196;2023-02-24T06:25:29;100627.72;;;22.86;23.72
63916;BME280;50094;51.356;-0.196;2023-02-24T06:27:56;100626.58;;;22.87;23.68
63916;BME280;50094;51.356;-0.196;2023-02-24T06:30:24;100628.01;;;22.90;23.65
63916;BME280;50094;51.356;-0.196;2023-02-24T06:32:52;100622.75;;;22.63;23.62
63916;BME280;50094;51.356;-0.196;2023-02-24T06:35:19;100620.20;;;23.12;23.59
63916;BME280;50094;51.356;-0.196;2023-02-24T06:37:46;100613.61;;;22.88;23.58
63916;BME280;50094;51.356;-0.196;2023-02-24T06:40:14;100611.16;;;22.88;23.53
63916;BME280;50094;51.356;-0.196;2023-02-24T06:42:44;100611.56;;;22.91;23.48
63916;BME280;50094;51.356;-0.196;2023-02-24T06:45:12;100608.47;;;22.88;23.44
63916;BME280;50094;51.356;-0.196;2023-02-24T06:47:40;100606.41;;;22.85;23.41
63916;BME280;50094;51.356;-0.196;2023-02-24T06:50:09;100604.27;;;23.03;23.39
63916;BME280;50094;51.356;-0.196;2023-02-24T06:52:36;100601.83;;;23.05;23.37
63916;BME280;50094;51.356;-0.196;2023-02-24T06:55:03;100597.38;;;22.82;23.35
63916;BME280;50094;51.356;-0.196;2023-02-24T06:57:31;100596.91;;;23.01;23.33
63916;BME280;50094;51.356;-0.196;2023-02-24T06:59:57;100595.07;;;22.96;23.34
63916;BME280;50094;51.356;-0.196;2023-02-24T07:02:24;100596.60;;;22.75;23.32
63916;BME280;50094;51.356;-0.196;2023-02-24T07:04:51;100598.92;;;22.73;23.32
63916;BME280;50094;51.356;-0.196;2023-02-24T07:07:18;100603.45;;;22.91;23.30
63916;BME280;50094;51.356;-0.196;2023-02-24T07:09:45;100602.93;;;22.70;23.28
63916;BME280;50094;51.356;-0.196;2023-02-24T07:12:12;100606.22;;;22.69;23.27
63916;BME280;50094;51.356;-0.196;2023-02-24T07:14:39;100605.93;;;22.86;23.30
63916;BME280;50094;51.356;-0.196;2023-02-24T07:17:06;100604.17;;;22.86;23.30
63916;BME280;50094;51.356;-0.196;2023-02-24T07:19:34;100600.21;;;22.85;23.28
63916;BME280;50094;51.356;-0.196;2023-02-24T07:22:02;100599.74;;;22.61;23.28
63916;BME280;50094;51.356;-0.196;2023-02-24T07:24:31;100597.34;;;22.79;23.29
63916;BME280;50094;51.356;-0.196;2023-02-24T07:27:01;100597.74;;;22.77;23.28
63916;BME280;50094;51.356;-0.196;2023-02-24T07:29:30;100599.32;;;22.76;23.31
63916;BME280;50094;51.356;-0.196;2023-02-24T07:31:58;100597.88;;;22.77;23.31
63916;BME280;50094;51.356;-0.196;2023-02-24T07:34:26;100600.62;;;22.69;23.32
63916;BME280;50094;51.356;-0.196;2023-02-24T07:36:54;100599.71;;;22.66;23.33
63916;BME280;50094;51.356;-0.196;2023-02-24T07:39:23;100600.34;;;22.64;23.34
63916;BME280;50094;51.356;-0.196;2023-02-24T07:41:51;100598.06;;;22.60;23.35
63916;BME280;50094;51.356;-0.196;2023-02-24T07:44:20;100596.98;;;22.59;23.38
63916;BME280;50094;51.356;-0.196;2023-02-24T07:46:48;100596.83;;;22.37;23.37
63916;BME280;50094;51.356;-0.196;2023-02-24T07:49:17;100596.04;;;22.58;23.39
63916;BME280;50094;51.356;-0.196;2023-02-24T07:51:46;100598.03;;;22.54;23.42
63916;BME280;50094;51.356;-0.196;2023-02-24T07:54:14;100596.76;;;22.52;23.42
63916;BME280;50094;51.356;-0.196;2023-02-24T07:56:41;100594.85;;;22.52;23.43
63916;BME280;50094;51.356;-0.196;2023-02-24T07:59:08;100595.61;;;22.47;23.52
63916;BME280;50094;51.356;-0.196;2023-02-24T08:01:36;100595.54;;;22.47;23.52
63916;BME280;50094;51.356;-0.196;2023-02-24T08:04:05;100595.04;;;22.44;23.54
63916;BME280;50094;51.356;-0.196;2023-02-24T08:06:35;100593.71;;;22.48;23.56
63916;BME280;50094;51.356;-0.196;2023-02-24T08:09:04;100592.42;;;22.18;23.65
63916;BME280;50094;51.356;-0.196;2023-02-24T08:11:32;100585.98;;;22.41;23.65
63916;BME280;50094;51.356;-0.196;2023-02-24T08:13:59;100580.70;;;22.43;23.65
63916;BME280;50094;51.356;-0.196;2023-02-24T08:16:26;100581.50;;;22.43;23.68
63916;BME280;50094;51.356;-0.196;2023-02-24T08:18:53;100583.08;;;22.34;23.82
63916;BME280;50094;51.356;-0.196;2023-02-24T08:21:20;100580.88;;;22.32;23.83
63916;BME280;50094;51.356;-0.196;2023-02-24T08:23:47;100578.07;;;22.58;23.85
63916;BME280;50094;51.356;-0.196;2023-02-24T08:26:13;100573.76;;;22.40;23.83
63916;BME280;50094;51.356;-0.196;2023-02-24T08:28:41;100574.38;;;22.35;23.86
63916;BME280;50094;51.356;-0.196;2023-02-24T08:31:08;100571.35;;;22.39;23.86
63916;BME280;50094;51.356;-0.196;2023-02-24T08:33:35;100571.17;;;22.47;23.86
63916;BME280;50094;51.356;-0.196;2023-02-24T08:36:02;100568.46;;;22.21;23.87
63916;BME280;50094;51.356;-0.196;2023-02-24T08:38:32;100565.25;;;22.36;24.00
63916;BME280;50094;51.356;-0.196;2023-02-24T08:41:00;100562.80;;;22.33;24.04
63916;BME280;50094;51.356;-0.196;2023-02-24T08:43:29;100557.89;;;22.38;23.99
63916;BME280;50094;51.356;-0.196;2023-02-24T08:45:59;100564.77;;;22.44;23.97
63916;BME280;50094;51.356;-0.196;2023-02-24T08:48:29;100565.32;;;22.41;23.98
63916;BME280;50094;51.356;-0.196;2023-02-24T08:51:00;100567.63;;;22.35;24.04
63916;BME280;50094;51.356;-0.196;2023-02-24T08:53:28;100566.78;;;22.46;24.00
63916;BME280;50094;51.356;-0.196;2023-02-24T08:55:55;100560.30;;;22.97;23.99
63916;BME280;50094;51.356;-0.196;2023-02-24T08:58:21;100554.99;;;22.49;24.02
63916;BME280;50094;51.356;-0.196;2023-02-24T09:00:48;100553.91;;;22.49;24.02
63916;BME280;50094;51.356;-0.196;2023-02-24T09:03:16;100549.21;;;22.53;24.01
63916;BME280;50094;51.356;-0.196;2023-02-24T09:05:44;100551.13;;;22.50;24.03
63916;BME280;50094;51.356;-0.196;2023-02-24T09:08:11;100547.17;;;22.49;24.06
63916;BME280;50094;51.356;-0.196;2023-02-24T09:10:38;100543.44;;;22.46;24.05
63916;BME280;50094;51.356;-0.196;2023-02-24T09:13:05;100544.06;;;22.49;24.06
63916;BME280;50094;51.356;-0.196;2023-02-24T09:15:32;100545.15;;;22.54;24.02
63916;BME280;50094;51.356;-0.196;2023-02-24T09:17:59;100542.95;;;22.52;24.04
63916;BME280;50094;51.356;-0.196;2023-02-24T09:20:26;100541.21;;;22.52;24.03
63916;BME280;50094;51.356;-0.196;2023-02-24T09:22:54;100531.37;;;22.55;24.03
63916;BME280;50094;51.356;-0.196;2023-02-24T09:25:23;100527.34;;;22.55;24.06
63916;BME280;50094;51.356;-0.196;2023-02-24T09:27:52;100522.92;;;22.83;24.08
63916;BME280;50094;51.356;-0.196;2023-02-24T09:30:20;100516.59;;;22.54;24.07
63916;BME280;50094;51.356;-0.196;2023-02-24T09:32:49;100511.25;;;22.60;24.06
63916;BME280;50094;51.356;-0.196;2023-02-24T09:35:16;100504.42;;;22.58;24.09
63916;BME280;50094;51.356;-0.196;2023-02-24T09:37:43;100500.89;;;22.61;24.11
63916;BME280;50094;51.356;-0.196;2023-02-24T09:40:11;100498.47;;;22.67;24.08
63916;BME280;50094;51.356;-0.196;2023-02-24T09:42:39;100499.91;;;22.43;24.11
63916;BME280;50094;51.356;-0.196;2023-02-24T09:45:11;100502.57;;;22.67;24.09
63916;BME280;50094;51.356;-0.196;2023-02-24T09:47:43;100496.55;;;22.58;24.12
63916;BME280;50094;51.356;-0.196;2023-02-24T09:50:19;100491.61;;;22.62;24.14
63916;BME280;50094;51.356;-0.196;2023-02-24T09:52:53;100487.42;;;22.58;24.19
63916;BME280;50094;51.356;-0.196;2023-02-24T09:55:26;100486.24;;;22.40;24.19
63916;BME280;50094;51.356;-0.196;2023-02-24T09:58:03;100488.40;;;22.60;24.24
63916;BME280;50094;51.356;-0.196;2023-02-24T10:00:33;100491.60;;;22.44;24.23
63916;BME280;50094;51.356;-0.196;2023-02-24T10:03:07;100488.43;;;22.42;24.27
63916;BME280;50094;51.356;-0.196;2023-02-24T10:05:42;100485.93;;;22.70;24.23
63916;BME280;50094;51.356;-0.196;2023-02-24T10:08:17;100484.94;;;22.53;24.20
63916;BME280;50094;51.356;-0.196;2023-02-24T10:10:46;100486.93;;;22.75;24.21
63916;BME280;50094;51.356;-0.196;2023-02-24T10:13:16;100482.92;;;22.75;24.24
63916;BME280;50094;51.356;-0.196;2023-02-24T10:15:46;100479.26;;;22.75;24.25
63916;BME280;50094;51.356;-0.196;2023-02-24T10:18:29;100478.04;;;22.74;24.26
63916;BME280;50094;51.356;-0.196;2023-02-24T10:21:02;100484.98;;;22.77;24.25
63916;BME280;50094;51.356;-0.196;2023-02-24T10:23:38;100479.43;;;22.60;24.28
63916;BME280;50094;51.356;-0.196;2023-02-24T10:26:15;100480.58;;;22.80;24.31
63916;BME280;50094;51.356;-0.196;2023-02-24T10:28:48;100478.25;;;22.86;24.32
63916;BME280;50094;51.356;-0.196;2023-02-24T10:31:22;100477.03;;;22.84;24.32
63916;BME280;50094;51.356;-0.196;2023-02-24T10:33:55;100476.49;;;22.86;24.31
63916;BME280;50094;51.356;-0.196;2023-02-24T10:36:24;100477.99;;;22.84;24.35
63916;BME280;50094;51.356;-0.196;2023-02-24T10:38:52;100475.74;;;22.64;24.33
63916;BME280;50094;51.356;-0.196;2023-02-24T10:41:20;100478.32;;;22.87;24.35
63916;BME280;50094;51.356;-0.196;2023-02-24T10:43:53;100477.08;;;22.61;24.36
63916;BME280;50094;51.356;-0.196;2023-02-24T10:46:24;100476.78;;;22.33;24.39
63916;BME280;50094;51.356;-0.196;2023-02-24T10:48:55;100475.59;;;22.85;24.40
63916;BME280;50094;51.356;-0.196;2023-02-24T10:51:22;100475.98;;;22.87;24.38
63916;BME280;50094;51.356;-0.196;2023-02-24T10:53:50;100475.12;;;22.88;24.38
63916;BME280;50094;51.356;-0.196;2023-02-24T10:56:19;100473.86;;;22.88;24.39
63916;BME280;50094;51.356;-0.196;2023-02-24T10:58:46;100476.07;;;22.86;24.42
63916;BME280;50094;51.356;-0.196;2023-02-24T11:01:16;100472.72;;;22.63;24.42
63916;BME280;50094;51.356;-0.196;2023-02-24T11:03:49;100473.94;;;22.64;24.44
63916;BME280;50094;51.356;-0.196;2023-02-24T11:06:18;100473.14;;;22.63;24.48
63916;BME280;50094;51.356;-0.196;2023-02-24T11:08:56;100469.72;;;22.67;24.50
63916;BME280;50094;51.356;-0.196;2023-02-24T11:11:28;100470.40;;;22.72;24.49
63916;BME280;50094;51.356;-0.196;2023-02-24T11:13:59;100467.54;;;22.96;24.51
63916;BME280;50094;51.356;-0.196;2023-02-24T11:16:27;100465.55;;;22.94;24.51
63916;BME280;50094;51.356;-0.196;2023-02-24T11:18:55;100464.74;;;22.96;24.50
63916;BME280;50094;51.356;-0.196;2023-02-24T11:21:25;100466.19;;;22.93;24.53
63916;BME280;50094;51.356;-0.196;2023-02-24T11:23:56;100464.68;;;22.94;24.55
63916;BME280;50094;51.356;-0.196;2023-02-24T11:26:29;100461.10;;;22.68;24.56
63916;BME280;50094;51.356;-0.196;2023-02-24T11:29:08;100459.53;;;22.67;24.56
63916;BME280;50094;51.356;-0.196;2023-02-24T11:31:51;100454.60;;;22.88;24.57
63916;BME280;50094;51.356;-0.196;2023-02-24T11:34:25;100452.70;;;22.69;24.58
63916;BME280;50094;51.356;-0.196;2023-02-24T11:37:03;100450.87;;;22.71;24.58
63916;BME280;50094;51.356;-0.196;2023-02-24T11:39:44;100443.07;;;22.73;24.59
63916;BME280;50094;51.356;-0.196;2023-02-24T11:42:17;100440.46;;;22.73;24.60
63916;BME280;50094;51.356;-0.196;2023-02-24T11:44:54;100440.21;;;22.67;24.61
63916;BME280;50094;51.356;-0.196;2023-02-24T11:47:28;100438.45;;;22.94;24.63
63916;BME280;50094;51.356;-0.196;2023-02-24T11:50:06;100434.46;;;22.90;24.64
63916;BME280;50094;51.356;-0.196;2023-02-24T11:52:43;100430.51;;;22.94;24.67
63916;BME280;50094;51.356;-0.196;2023-02-24T11:55:18;100430.41;;;22.98;24.71
63916;BME280;50094;51.356;-0.196;2023-02-24T11:57:51;100431.43;;;22.80;24.69
63916;BME280;50094;51.356;-0.196;2023-02-24T12:00:23;100429.54;;;22.96;24.71
63916;BME280;50094;51.356;-0.196;2023-02-24T12:02:56;100426.74;;;22.96;24.73
63916;BME280;50094;51.356;-0.196;2023-02-24T12:05:27;100426.11;;;22.95;24.74
63916;BME280;50094;51.356;-0.196;2023-02-24T12:08:03;100424.07;;;22.95;24.76
63916;BME280;50094;51.356;-0.196;2023-02-24T12:10:35;100421.35;;;22.72;24.80
63916;BME280;50094;51.356;-0.196;2023-02-24T12:13:11;100415.79;;;22.96;24.81
63916;BME280;50094;51.356;-0.196;2023-02-24T12:15:46;100412.36;;;23.01;24.81
63916;BME280;50094;51.356;-0.196;2023-02-24T12:18:21;100407.25;;;23.03;24.80
63916;BME280;50094;51.356;-0.196;2023-02-24T12:20:53;100402.80;;;22.79;24.81
63916;BME280;50094;51.356;-0.196;2023-02-24T12:23:24;100404.78;;;23.01;24.81
63916;BME280;50094;51.356;-0.196;2023-02-24T12:26:03;100405.49;;;22.99;24.82
63916;BME280;50094;51.356;-0.196;2023-02-24T12:28:47;100402.88;;;22.78;24.82
63916;BME280;50094;51.356;-0.196;2023-02-24T12:31:24;100400.19;;;22.96;24.84
63916;BME280;50094;51.356;-0.196;2023-02-24T12:34:04;100396.99;;;22.90;24.87
63916;BME280;50094;51.356;-0.196;2023-02-24T12:36:44;100398.45;;;22.89;24.89
63916;BME280;50094;51.356;-0.196;2023-02-24T12:39:16;100401.55;;;22.73;24.88
63916;BME280;50094;51.356;-0.196;2023-02-24T12:41:56;100400.90;;;22.93;24.90
63916;BME280;50094;51.356;-0.196;2023-02-24T12:44:34;100397.15;;;22.89;24.93
63916;BME280;50094;51.356;-0.196;2023-02-24T12:47:07;100395.22;;;22.88;24.96
63916;BME280;50094;51.356;-0.196;2023-02-24T12:50:02;100393.52;;;22.61;24.99
63916;BME280;50094;51.356;-0.196;2023-02-24T12:52:39;100393.61;;;22.87;24.99
63916;BME280;50094;51.356;-0.196;2023-02-24T12:55:16;100393.29;;;22.81;25.04
63916;BME280;50094;51.356;-0.196;2023-02-24T12:57:51;100393.77;;;22.76;25.07